Time;durP1;ratioP1;P1;durP2;ratioP2;P2;SDS_P1;SDS_P2;PMS_P1;PMS_P2;Temp;Humidity;BMP_temperature;BMP_pressure;BME280_temperature;BME280_humidity;BME280_pressure;Samples;Min_cycle;Max_cycle;Signal;HPM_P1;HPM_P2
2020/12/21 00:01:21;176953.00;0.59;306.24;0.00;0.00;0.62;;;;;16.10;1.00;;;;;;2268419;61;989;-89
2020/12/21 00:03:47;402353.00;1.34;693.85;0.00;0.00;0.62;;;;;16.20;1.00;;;;;;2261693;61;1932;-88
2020/12/21 00:06:14;167652.00;0.56;290.22;0.00;0.00;0.62;;;;;16.20;1.00;;;;;;2258447;61;1424;-89
2020/12/21 00:08:41;538571.00;1.80;928.26;0.00;0.00;0.62;;;;;16.30;1.00;;;;;;2268453;61;1038;-88
2020/12/21 00:11:09;166814.00;0.56;288.78;0.00;0.00;0.62;;;;;16.30;1.00;;;;;;2268448;61;1027;-88
2020/12/21 00:13:42;132039.00;0.44;228.85;0.00;0.00;0.62;;;;;16.30;1.00;;;;;;2264980;61;1096;-88
2020/12/21 00:16:09;159629.00;0.53;276.40;0.00;0.00;0.62;;;;;16.40;1.00;;;;;;2263183;61;1445;-90
2020/12/21 00:18:35;245061.00;0.82;423.46;0.00;0.00;0.62;;;;;16.50;1.00;;;;;;2277317;61;1126;-88
2020/12/21 00:21:02;443600.00;1.48;764.77;68983.00;0.23;120.00;;;;;16.40;1.00;;;;;;2273924;61;1022;-89
2020/12/21 00:23:29;602498.00;2.01;1038.53;82928.00;0.28;144.09;;;;;16.20;1.00;;;;;;2280979;61;1985;-88
2020/12/21 00:25:55;695800.00;2.32;1199.96;85592.00;0.29;148.70;;;;;16.10;1.00;;;;;;2281005;61;1442;-89
2020/12/21 00:28:23;412766.00;1.38;711.75;87182.00;0.29;151.44;;;;;16.10;1.00;;;;;;2280946;61;1056;-88
2020/12/21 00:30:49;424047.00;1.41;731.15;78347.00;0.26;136.18;;;;;16.20;1.00;;;;;;2280903;61;1632;-89
2020/12/21 00:33:16;299244.00;1.00;516.62;80482.00;0.27;139.87;;;;;16.00;1.00;;;;;;2280840;61;1146;-90
2020/12/21 00:35:42;371417.00;1.24;640.67;76904.00;0.26;133.69;;;;;15.90;1.00;;;;;;2280929;61;1261;-89
2020/12/21 00:38:10;283442.00;0.94;489.46;78788.00;0.26;136.94;;;;;15.80;1.00;;;;;;2280871;61;1185;-89
2020/12/21 00:40:36;280603.00;0.94;484.57;78526.00;0.26;136.49;;;;;15.80;1.00;;;;;;2280952;61;947;-89
2020/12/21 00:43:03;346122.00;1.15;597.20;78089.00;0.26;135.74;;;;;15.70;1.00;;;;;;2280842;61;1915;-89
2020/12/21 00:45:30;451422.00;1.50;778.23;109957.00;0.37;190.76;;;;;15.70;1.00;;;;;;2280849;61;1640;-88
2020/12/21 00:47:57;313486.00;1.04;541.10;75222.00;0.25;130.78;;;;;15.20;1.00;;;;;;2280925;61;1055;-89
2020/12/21 00:50:23;211435.00;0.70;365.60;82575.00;0.28;143.49;;;;;15.20;1.00;;;;;;2280894;61;1081;-88
2020/12/21 00:52:50;206430.00;0.69;356.99;85716.00;0.29;148.91;;;;;14.70;1.00;;;;;;2273778;61;1157;-89
2020/12/21 00:55:16;212624.00;0.71;367.65;80415.00;0.27;139.75;;;;;14.60;1.00;;;;;;2280861;61;1338;-90
2020/12/21 00:57:43;199630.00;0.67;345.29;80821.00;0.27;140.46;;;;;14.50;1.00;;;;;;2280933;61;937;-89
2020/12/21 01:00:09;195261.00;0.65;337.77;76182.00;0.25;132.44;;;;;14.50;1.00;;;;;;2273758;61;1036;-88
2020/12/21 01:02:38;168397.00;0.56;291.51;78684.00;0.26;136.76;;;;;14.30;1.00;;;;;;2280835;61;1993;-89
2020/12/21 01:05:05;270479.00;0.90;467.17;77953.00;0.26;135.50;;;;;13.90;1.00;;;;;;2280552;61;1275;-88
2020/12/21 01:07:31;176146.00;0.59;304.85;82770.00;0.28;143.82;;;;;13.20;1.00;;;;;;2280880;61;922;-89
2020/12/21 01:09:58;260945.00;0.87;450.77;87660.00;0.29;152.27;;;;;13.60;1.20;;;;;;2280834;61;1153;-90
2020/12/21 01:12:24;350956.00;1.17;605.50;85501.00;0.29;148.54;;;;;14.20;1.10;;;;;;2280784;61;1620;-88
2020/12/21 01:14:51;296254.00;0.99;511.48;81299.00;0.27;141.28;;;;;14.70;1.00;;;;;;2280756;61;1610;-90
2020/12/21 01:17:18;196476.00;0.65;339.86;80880.00;0.27;140.56;;;;;15.00;1.00;;;;;;2280851;61;1155;-90
2020/12/21 01:19:45;282155.00;0.94;487.24;79346.00;0.26;137.91;;;;;15.20;1.00;;;;;;2280707;61;1688;-90
2020/12/21 01:22:12;169616.00;0.57;293.61;82735.00;0.28;143.76;;;;;15.30;1.00;;;;;;2280786;61;1998;-90
2020/12/21 01:24:40;195241.00;0.65;337.73;74708.00;0.25;129.90;;;;;15.30;1.00;;;;;;2280362;61;985;-88
2020/12/21 01:27:06;241317.00;0.80;417.02;76613.00;0.26;133.19;;;;;15.40;1.00;;;;;;2280785;61;1437;-90
2020/12/21 01:29:33;335965.00;1.12;579.74;75806.00;0.25;131.79;;;;;15.50;1.00;;;;;;2280807;61;953;-88
2020/12/21 01:31:59;343984.00;1.15;593.52;79776.00;0.27;138.65;;;;;15.60;1.00;;;;;;2268141;61;1008;-91
2020/12/21 01:34:26;174001.00;0.58;301.16;78121.00;0.26;135.79;;;;;15.60;1.00;;;;;;2268085;61;1635;-90
2020/12/21 01:36:53;178255.00;0.59;308.48;82523.00;0.28;143.40;;;;;15.30;1.00;;;;;;2268064;61;1417;-89
2020/12/21 01:39:19;295418.00;0.98;510.04;80923.00;0.27;140.63;;;;;15.40;1.00;;;;;;2268176;61;1040;-91
2020/12/21 01:41:46;196909.00;0.66;340.60;81036.00;0.27;140.83;;;;;15.40;1.00;;;;;;2264714;61;1998;-90
2020/12/21 01:44:12;279948.00;0.93;483.45;80389.00;0.27;139.71;;;;;15.40;1.00;;;;;;2268095;61;999;-90
2020/12/21 01:46:39;209586.00;0.70;362.42;77719.00;0.26;135.10;;;;;15.50;1.00;;;;;;2268087;61;1317;-89
2020/12/21 01:49:06;171508.00;0.57;296.86;72975.00;0.24;126.90;;;;;15.50;1.00;;;;;;2269534;61;1142;-90
2020/12/21 01:51:33;173975.00;0.58;301.11;68551.00;0.23;119.26;;;;;15.40;1.00;;;;;;2271992;61;1183;-90
2020/12/21 01:54:01;211428.00;0.70;365.59;80943.00;0.27;140.67;;;;;15.30;1.00;;;;;;2272061;61;936;-89
2020/12/21 06:23:37;227354.00;0.76;393.00;17205.00;0.06;30.43;;;;;12.10;1.00;;;;;;2420756;39;3407;31
2020/12/21 07:58:47;1221145.00;4.07;2128.50;82873.00;0.28;144.00;;;;;11.40;2.10;;;;;;2281873;61;1260;-86
2020/12/21 08:01:20;412903.00;1.38;711.99;0.00;0.00;0.62;;;;;11.90;1.80;;;;;;2273324;61;982;-85
2020/12/21 08:03:51;381280.00;1.27;657.63;85920.00;0.29;149.26;;;;;12.10;1.00;;;;;;2273176;61;1911;-85
2020/12/21 08:06:22;773113.00;2.58;1334.27;0.00;0.00;0.62;;;;;12.40;1.00;;;;;;2273080;61;1393;-86
2020/12/21 08:08:49;467797.00;1.56;806.40;0.00;0.00;0.62;;;;;12.40;1.00;;;;;;2269040;61;965;-84
2020/12/21 08:11:18;699054.00;2.33;1205.60;20007.00;0.07;35.28;;;;;12.30;1.00;;;;;;2275865;61;1011;-85
2020/12/21 08:13:47;464918.00;1.55;801.45;0.00;0.00;0.62;;;;;12.30;1.00;;;;;;2275261;61;1059;-85
2020/12/21 08:16:14;435720.00;1.45;751.22;0.00;0.00;0.62;;;;;12.40;1.00;;;;;;2276464;61;1305;-86
2020/12/21 08:18:45;541104.00;1.80;932.63;10620.00;0.04;19.02;;;;;12.40;1.00;;;;;;2276485;61;955;-86
2020/12/21 08:21:15;260865.00;0.87;450.64;0.00;0.00;0.62;;;;;12.20;1.00;;;;;;2264254;61;966;-85
2020/12/21 08:23:41;478081.00;1.59;824.10;0.00;0.00;0.62;;;;;11.80;1.00;;;;;;2257790;61;2017;-86
2020/12/21 08:26:14;478265.00;1.59;824.41;0.00;0.00;0.62;;;;;11.90;1.00;;;;;;2264325;61;1274;-86
2020/12/21 08:28:41;502583.00;1.68;866.27;34831.00;0.12;60.94;;;;;11.80;1.00;;;;;;2264266;61;1769;-86
2020/12/21 08:31:11;437265.00;1.46;753.88;0.00;0.00;0.62;;;;;12.10;1.00;;;;;;2264277;61;1633;-85
2020/12/21 08:33:39;151010.00;0.50;261.55;0.00;0.00;0.62;;;;;12.10;1.00;;;;;;2264346;61;995;-87
2020/12/21 08:36:23;637046.00;2.12;1098.23;30943.00;0.10;54.22;;;;;12.40;1.00;;;;;;2264219;61;1558;-86
2020/12/21 08:38:51;417354.00;1.39;719.64;0.00;0.00;0.62;;;;;12.50;1.00;;;;;;2266933;61;993;-86
2020/12/21 08:41:19;345146.00;1.15;595.52;0.00;0.00;0.62;;;;;12.80;1.00;;;;;;2276499;60;1628;-86
2020/12/21 08:43:46;527570.00;1.76;909.31;0.00;0.00;0.62;;;;;12.90;1.00;;;;;;2285040;60;1911;-86
2020/12/21 08:46:14;890269.00;2.97;1539.04;85986.00;0.29;149.38;;;;;12.80;1.00;;;;;;2284809;60;1745;-86
2020/12/21 08:48:44;713915.00;2.38;1231.38;79507.00;0.27;138.19;;;;;12.80;1.00;;;;;;2284929;60;1719;-87
2020/12/21 08:51:11;678573.00;2.26;1170.10;68240.00;0.23;118.72;;;;;12.10;1.00;;;;;;2284878;60;1640;-86
2020/12/21 08:53:38;835546.00;2.79;1443.19;89350.00;0.30;155.19;;;;;11.40;1.00;;;;;;2284882;60;1600;-85
2020/12/21 08:56:14;653560.00;2.18;1126.80;76802.00;0.26;133.51;;;;;11.30;1.00;;;;;;2284911;60;1864;-84
2020/12/21 08:58:41;520546.00;1.74;897.21;0.00;0.00;0.62;;;;;11.90;1.00;;;;;;2284857;60;1736;-86
2020/12/21 09:01:08;492753.00;1.64;849.35;0.00;0.00;0.62;;;;;12.30;1.00;;;;;;2284960;60;1852;-86
2020/12/21 09:03:36;425477.00;1.42;733.61;0.00;0.00;0.62;;;;;12.80;1.00;;;;;;2284802;60;2001;-86
2020/12/21 09:06:03;503447.00;1.68;867.76;20496.00;0.07;36.13;;;;;13.00;1.00;;;;;;2284791;60;1784;-86
2020/12/21 09:08:30;381738.00;1.27;658.41;81687.00;0.27;141.95;;;;;13.20;1.00;;;;;;2284934;60;1732;-86
2020/12/21 09:10:57;532094.00;1.77;917.10;0.00;0.00;0.62;;;;;12.70;1.00;;;;;;2284797;60;1663;-87
2020/12/21 09:13:26;569135.00;1.90;980.95;17586.00;0.06;31.09;;;;;12.90;1.00;;;;;;2284751;60;1604;-87
2020/12/21 09:15:52;491334.00;1.64;846.91;0.00;0.00;0.62;;;;;13.00;1.00;;;;;;2284890;60;1376;-85
2020/12/21 09:18:19;544519.00;1.82;938.51;77593.00;0.26;134.88;;;;;12.70;1.00;;;;;;2284887;60;1617;-85
2020/12/21 09:20:46;532308.00;1.77;917.47;0.00;0.00;0.62;;;;;12.30;1.00;;;;;;2284914;60;996;-86
2020/12/21 09:23:13;508115.00;1.69;875.80;0.00;0.00;0.62;;;;;11.10;1.00;;;;;;2284809;60;2013;-85
2020/12/21 09:25:40;563177.00;1.88;970.68;0.00;0.00;0.62;;;;;10.10;1.00;;;;;;2284547;60;1422;-85
2020/12/21 09:28:07;453842.00;1.51;782.39;0.00;0.00;0.62;;;;;9.70;1.00;;;;;;2284825;60;1114;-86
2020/12/21 09:30:33;764094.00;2.55;1318.57;25082.00;0.08;44.07;;;;;9.80;1.80;;;;;;2284877;60;1626;-86
2020/12/21 09:33:01;512627.00;1.71;883.57;0.00;0.00;0.62;;;;;9.70;2.10;;;;;;2284837;60;1616;-85
2020/12/21 09:35:28;760995.00;2.54;1313.18;69923.00;0.23;121.63;;;;;10.00;1.90;;;;;;2284958;60;1678;-85
2020/12/21 09:37:55;562445.00;1.87;969.42;0.00;0.00;0.62;;;;;10.30;2.50;;;;;;2285076;60;1589;-85
2020/12/21 09:40:23;458043.00;1.53;789.62;0.00;0.00;0.62;;;;;10.50;1.00;;;;;;2285188;60;1001;-85
2020/12/21 09:42:50;716454.00;2.39;1235.78;4192.00;0.01;7.89;;;;;10.80;1.00;;;;;;2285033;60;2002;-86
2020/12/21 09:45:16;627950.00;2.09;1082.51;10459.00;0.03;18.74;;;;;10.90;1.00;;;;;;2284998;60;990;-85
2020/12/21 09:47:44;395862.00;1.32;682.69;0.00;0.00;0.62;;;;;10.60;1.00;;;;;;2285002;60;1353;-84
2020/12/21 09:50:11;319499.00;1.06;551.44;0.00;0.00;0.62;;;;;10.10;1.00;;;;;;2285033;60;1051;-86
2020/12/21 09:52:38;448863.00;1.50;773.83;28244.00;0.09;49.54;;;;;10.10;1.00;;;;;;2284757;60;1774;-86
2020/12/21 09:55:06;567457.00;1.89;978.06;16923.00;0.06;29.94;;;;;10.10;1.00;;;;;;2284898;60;1607;-86
2020/12/21 09:57:32;462483.00;1.54;797.26;41142.00;0.14;71.86;;;;;10.10;1.20;;;;;;2284995;60;1383;-84
2020/12/21 09:59:59;419940.00;1.40;724.09;7081.00;0.02;12.89;;;;;11.00;2.20;;;;;;2284892;60;1406;-85
2020/12/21 10:02:26;497843.00;1.66;858.11;54058.00;0.18;94.20;;;;;11.30;1.00;;;;;;2284819;60;1927;-86
2020/12/21 10:04:52;478178.00;1.59;824.26;0.00;0.00;0.62;;;;;11.80;1.40;;;;;;2284950;60;1750;-86
2020/12/21 10:15:08;510590.00;1.70;880.06;0.00;0.00;0.62;;;;;11.30;1.00;;;;;;2290943;60;1363;-84
2020/12/21 10:17:35;174667.00;0.58;302.31;0.00;0.00;0.62;;;;;11.20;1.00;;;;;;2289161;60;1361;-83
2020/12/21 10:20:01;176640.00;0.59;305.70;0.00;0.00;0.62;;;;;11.20;1.00;;;;;;2280483;61;1028;-83
2020/12/21 10:22:28;206269.00;0.69;356.71;36375.00;0.12;63.62;;;;;11.50;1.00;;;;;;2280545;61;2002;-85
2020/12/21 10:24:56;262968.00;0.88;454.25;0.00;0.00;0.62;;;;;12.10;1.00;;;;;;2280460;61;1161;-84
2020/12/21 10:27:22;84979.00;0.28;147.64;0.00;0.00;0.62;;;;;11.60;1.00;;;;;;2280568;61;1364;-85
2020/12/21 10:29:50;139774.00;0.47;242.18;0.00;0.00;0.62;;;;;11.20;1.00;;;;;;2272366;61;1052;-84
2020/12/21 10:32:17;68793.00;0.23;119.67;0.00;0.00;0.62;;;;;11.10;1.00;;;;;;2265685;61;1016;-84
2020/12/21 10:34:44;72246.00;0.24;125.64;0.00;0.00;0.62;;;;;11.50;1.00;;;;;;2272385;61;1045;-84
2020/12/21 10:37:10;131201.00;0.44;227.40;0.00;0.00;0.62;;;;;11.90;1.00;;;;;;2273428;61;1476;-84
2020/12/21 10:39:37;117559.00;0.39;203.87;0.00;0.00;0.62;;;;;12.00;1.00;;;;;;2273797;61;1111;-85
2020/12/21 10:42:05;52452.00;0.17;91.43;0.00;0.00;0.62;;;;;12.00;1.00;;;;;;2280561;61;909;-85
2020/12/21 10:44:32;27984.00;0.09;49.09;0.00;0.00;0.62;;;;;12.10;1.00;;;;;;2268203;61;2013;-85
2020/12/21 10:46:58;117908.00;0.39;204.47;0.00;0.00;0.62;;;;;12.20;1.00;;;;;;2264653;61;1392;-84
2020/12/21 10:49:26;203289.00;0.68;351.58;0.00;0.00;0.62;;;;;12.20;1.00;;;;;;2268366;61;1069;-85
2020/12/21 10:51:53;241033.00;0.80;416.53;0.00;0.00;0.62;;;;;11.90;1.00;;;;;;2261634;61;1120;-85
2020/12/21 10:54:20;252299.00;0.84;435.90;0.00;0.00;0.62;;;;;11.80;1.00;;;;;;2261617;61;1037;-86
2020/12/21 10:56:52;103033.00;0.34;178.81;0.00;0.00;0.62;;;;;12.00;1.00;;;;;;2268133;61;1324;-86
2020/12/21 10:59:18;260979.00;0.87;450.83;4662.00;0.02;8.70;;;;;11.70;1.00;;;;;;2268283;61;995;-85
2020/12/21 11:01:46;97593.00;0.33;169.42;0.00;0.00;0.62;;;;;11.40;1.00;;;;;;2268797;61;1121;-85
2020/12/21 11:04:13;234039.00;0.78;404.50;11729.00;0.04;20.94;;;;;11.10;1.00;;;;;;2277727;60;1980;-85
2020/12/21 11:06:42;141621.00;0.47;245.37;0.00;0.00;0.62;;;;;11.50;1.00;;;;;;2284511;60;1518;-85
2020/12/21 11:09:09;168909.00;0.56;292.39;0.00;0.00;0.62;;;;;11.90;1.00;;;;;;2284591;60;929;-84
2020/12/21 11:11:35;94418.00;0.31;163.94;0.00;0.00;0.62;;;;;12.20;1.00;;;;;;2284253;60;1036;-85
2020/12/21 11:14:03;173759.00;0.58;300.74;40326.00;0.13;70.45;;;;;12.60;1.00;;;;;;2285240;60;1008;-85
2020/12/21 11:16:30;0.00;0.00;0.62;0.00;0.00;0.62;;;;;13.10;1.00;;;;;;2280257;61;1291;-86
2020/12/21 11:18:57;186974.00;0.62;323.50;31401.00;0.10;55.01;;;;;13.00;1.00;;;;;;2280343;61;997;-85
2020/12/21 11:21:23;272356.00;0.91;470.39;0.00;0.00;0.62;;;;;13.30;1.00;;;;;;2279876;61;1684;-86
2020/12/21 11:23:51;196565.00;0.66;340.01;0.00;0.00;0.62;;;;;13.00;1.00;;;;;;2280342;61;1915;-86
2020/12/21 11:26:19;125966.00;0.42;218.37;0.00;0.00;0.62;;;;;13.00;1.00;;;;;;2280320;61;1453;-86
2020/12/21 11:28:46;35079.00;0.12;61.37;0.00;0.00;0.62;;;;;13.50;1.00;;;;;;2280379;61;989;-88
2020/12/21 11:31:16;15907.00;0.05;28.18;0.00;0.00;0.62;;;;;14.00;1.00;;;;;;2280338;61;1086;-88
2020/12/21 11:33:43;167717.00;0.56;290.33;0.00;0.00;0.62;;;;;14.40;1.00;;;;;;2281721;60;1011;-86
2020/12/21 11:36:10;175467.00;0.58;303.68;0.00;0.00;0.62;;;;;14.50;1.00;;;;;;2288903;60;1423;-87
2020/12/21 11:38:36;90515.00;0.30;157.20;0.00;0.00;0.62;;;;;14.70;1.00;;;;;;2288756;60;1547;-86
2020/12/21 11:41:04;174585.00;0.58;302.16;0.00;0.00;0.62;;;;;14.90;1.00;;;;;;2288792;60;1010;-86
2020/12/21 11:43:30;166631.00;0.56;288.46;0.00;0.00;0.62;;;;;15.10;1.00;;;;;;2288713;60;2004;-86
2020/12/21 11:45:57;173397.00;0.58;300.12;0.00;0.00;0.62;;;;;15.10;1.00;;;;;;2288816;60;1768;-86
2020/12/21 11:48:23;253253.00;0.84;437.55;1982.00;0.01;4.06;;;;;15.10;1.00;;;;;;2288848;60;1575;-86
2020/12/21 11:50:50;207303.00;0.69;358.49;0.00;0.00;0.62;;;;;14.20;1.00;;;;;;2289576;60;1069;-86
2020/12/21 11:53:16;171873.00;0.57;297.49;0.00;0.00;0.62;;;;;14.00;1.00;;;;;;2289575;60;1233;-86
2020/12/21 11:55:43;380093.00;1.27;655.59;39904.00;0.13;69.72;;;;;14.40;1.00;;;;;;2289424;60;1870;-86
2020/12/21 11:58:10;140407.00;0.47;243.27;24843.00;0.08;43.66;;;;;14.50;1.00;;;;;;2289540;60;1701;-86
2020/12/21 12:00:37;191795.00;0.64;331.80;0.00;0.00;0.62;;;;;14.20;1.00;;;;;;2289533;60;1769;-86
2020/12/21 12:03:04;186128.00;0.62;322.04;0.00;0.00;0.62;;;;;14.40;1.00;;;;;;2289484;60;1918;-86
2020/12/21 12:05:30;204643.00;0.68;353.92;0.00;0.00;0.62;;;;;14.70;1.00;;;;;;2289455;60;1617;-87
2020/12/21 12:07:57;180554.00;0.60;312.44;48061.00;0.16;83.83;;;;;14.90;1.00;;;;;;2289561;60;1135;-86
2020/12/21 12:10:23;143881.00;0.48;249.26;0.00;0.00;0.62;;;;;14.80;1.00;;;;;;2289529;60;1740;-87
2020/12/21 12:12:50;182560.00;0.61;315.90;0.00;0.00;0.62;;;;;14.80;1.00;;;;;;2289486;60;1770;-88
2020/12/21 12:15:17;153332.00;0.51;265.55;0.00;0.00;0.62;;;;;15.00;1.00;;;;;;2289545;60;949;-87
2020/12/21 12:17:44;179371.00;0.60;310.41;70688.00;0.24;122.95;;;;;15.00;1.00;;;;;;2289276;60;1881;-87
2020/12/21 12:20:12;262173.00;0.87;452.89;13657.00;0.05;24.28;;;;;15.20;1.00;;;;;;2289373;60;1558;-87
2020/12/21 12:22:39;208650.00;0.70;360.81;0.00;0.00;0.62;;;;;15.10;1.00;;;;;;2289399;60;2001;-88
2020/12/21 12:25:07;172440.00;0.57;298.47;0.00;0.00;0.62;;;;;15.00;1.00;;;;;;2289494;60;1039;-87
2020/12/21 12:27:34;77282.00;0.26;134.34;0.00;0.00;0.62;;;;;14.90;1.00;;;;;;2289451;60;1465;-88
2020/12/21 12:30:00;160521.00;0.54;277.94;0.00;0.00;0.62;;;;;14.90;1.00;;;;;;2289526;60;1047;-87
2020/12/21 12:32:28;243984.00;0.81;421.60;0.00;0.00;0.62;;;;;15.30;1.00;;;;;;2289324;60;1718;-87
2020/12/21 12:34:54;111533.00;0.37;193.48;0.00;0.00;0.62;;;;;14.90;1.00;;;;;;2289405;60;1110;-88
2020/12/21 12:37:21;158202.00;0.53;273.94;0.00;0.00;0.62;;;;;14.90;1.00;;;;;;2289357;60;1351;-88
2020/12/21 12:39:47;183368.00;0.61;317.29;0.00;0.00;0.62;;;;;14.70;1.00;;;;;;2289426;60;1180;-88
2020/12/21 12:42:14;296613.00;0.99;512.10;57175.00;0.19;99.59;;;;;14.90;1.00;;;;;;2289390;60;1057;-88
2020/12/21 12:44:40;152750.00;0.51;264.55;0.00;0.00;0.62;;;;;14.80;1.00;;;;;;2289462;60;2008;-88
2020/12/21 12:47:07;165557.00;0.55;286.61;0.00;0.00;0.62;;;;;15.00;1.00;;;;;;2289372;60;1304;-87
2020/12/21 12:49:34;172008.00;0.57;297.73;0.00;0.00;0.62;;;;;15.10;1.00;;;;;;2289346;60;1573;-87
2020/12/21 12:52:01;194279.00;0.65;336.08;0.00;0.00;0.62;;;;;14.90;1.00;;;;;;2289386;60;1745;-88
2020/12/21 12:54:27;139680.00;0.47;242.02;0.00;0.00;0.62;;;;;14.80;1.00;;;;;;2289391;60;1609;-86
2020/12/21 12:56:54;122706.00;0.41;212.75;0.00;0.00;0.62;;;;;14.70;1.00;;;;;;2289284;60;1739;-88
2020/12/21 12:59:20;248468.00;0.83;429.32;30773.00;0.10;53.92;;;;;14.40;1.00;;;;;;2289358;60;1765;-88
2020/12/21 13:01:47;290634.00;0.97;501.82;0.00;0.00;0.62;;;;;14.30;1.00;;;;;;2289287;60;1734;-87
2020/12/21 13:04:13;473091.00;1.58;815.51;103486.00;0.34;179.59;;;;;14.10;1.00;;;;;;2289330;60;2000;-88
2020/12/21 13:06:41;100343.00;0.33;174.16;0.00;0.00;0.62;;;;;14.00;1.00;;;;;;2289347;60;1415;-87
2020/12/21 13:09:07;134184.00;0.45;232.54;0.00;0.00;0.62;;;;;13.80;1.00;;;;;;2289356;60;1058;-87
2020/12/21 13:11:34;320988.00;1.07;554.00;40424.00;0.13;70.62;;;;;13.80;1.00;;;;;;2289327;60;1732;-87
2020/12/21 13:14:00;63184.00;0.21;109.98;0.00;0.00;0.62;;;;;13.70;1.00;;;;;;2289327;60;1109;-88
2020/12/21 13:16:27;177397.00;0.59;307.01;0.00;0.00;0.62;;;;;13.60;1.00;;;;;;2289384;60;1386;-87
2020/12/21 13:18:53;142636.00;0.48;247.11;0.00;0.00;0.62;;;;;13.50;1.00;;;;;;2289275;60;978;-87
2020/12/21 13:21:21;142521.00;0.48;246.92;0.00;0.00;0.62;;;;;13.70;1.00;;;;;;2289322;60;1119;-87
2020/12/21 13:23:49;166772.00;0.56;288.71;0.00;0.00;0.62;;;;;13.70;1.00;;;;;;2289275;60;2002;-87
2020/12/21 13:26:16;185047.00;0.62;320.18;0.00;0.00;0.62;;;;;14.00;1.00;;;;;;2289203;60;1644;-87
2020/12/21 13:28:44;77730.00;0.26;135.12;0.00;0.00;0.62;;;;;14.30;1.00;;;;;;2289322;60;1066;-87
2020/12/21 13:31:10;114808.00;0.38;199.13;0.00;0.00;0.62;;;;;14.10;1.00;;;;;;2289229;60;1621;-88
2020/12/21 13:33:37;145583.00;0.49;252.19;0.00;0.00;0.62;;;;;14.10;1.00;;;;;;2289264;60;1630;-86
2020/12/21 13:36:03;166320.00;0.55;287.93;0.00;0.00;0.62;;;;;14.00;1.00;;;;;;2289237;60;1760;-87
2020/12/21 13:38:35;159766.00;0.53;276.64;0.00;0.00;0.62;;;;;14.00;1.00;;;;;;2289230;60;1744;-86
2020/12/21 13:41:02;120929.00;0.40;209.68;18798.00;0.06;33.19;;;;;14.00;1.00;;;;;;2289303;60;1093;-86
2020/12/21 13:43:28;211948.00;0.71;366.49;0.00;0.00;0.62;;;;;13.40;1.00;;;;;;2289281;60;1992;-85
2020/12/21 13:45:55;146818.00;0.49;254.32;0.00;0.00;0.62;;;;;13.20;1.00;;;;;;2289177;60;1693;-86
2020/12/21 13:48:21;146562.00;0.49;253.88;0.00;0.00;0.62;;;;;12.90;1.00;;;;;;2289305;60;993;-88
2020/12/21 13:50:48;184124.00;0.61;318.59;0.00;0.00;0.62;;;;;13.00;1.00;;;;;;2289209;60;1111;-87
2020/12/21 13:53:14;143411.00;0.48;248.45;0.00;0.00;0.62;;;;;13.40;1.00;;;;;;2289203;60;1031;-88
2020/12/21 13:55:41;147375.00;0.49;255.28;0.00;0.00;0.62;;;;;13.30;1.00;;;;;;2289111;60;1866;-88
2020/12/21 13:58:08;287252.00;0.96;496.01;0.00;0.00;0.62;;;;;13.50;1.00;;;;;;2289202;60;1797;-89
2020/12/21 14:00:34;34018.00;0.11;59.54;0.00;0.00;0.62;;;;;13.60;1.00;;;;;;2289263;60;1070;-89
2020/12/21 14:03:01;113799.00;0.38;197.38;0.00;0.00;0.62;;;;;13.60;1.00;;;;;;2289218;60;1990;-90
2020/12/21 14:05:27;291909.00;0.97;504.01;55200.00;0.18;96.18;;;;;13.50;1.00;;;;;;2289153;60;1090;-88
2020/12/21 14:07:54;104881.00;0.35;182.00;0.00;0.00;0.62;;;;;13.50;1.00;;;;;;2289134;60;1351;-88
2020/12/21 14:10:20;148940.00;0.50;257.98;0.00;0.00;0.62;;;;;13.50;1.00;;;;;;2289224;60;993;-87
2020/12/21 14:12:47;25970.00;0.09;45.61;0.00;0.00;0.62;;;;;13.50;1.00;;;;;;2289047;60;1103;-87
2020/12/21 14:15:14;71487.00;0.24;124.33;0.00;0.00;0.62;;;;;13.60;1.00;;;;;;2289219;60;1140;-88
2020/12/21 14:17:40;27261.00;0.09;47.84;0.00;0.00;0.62;;;;;13.90;1.00;;;;;;2289024;60;1561;-88
2020/12/21 14:20:07;0.00;0.00;0.62;0.00;0.00;0.62;;;;;14.00;1.00;;;;;;2289168;60;1153;-88
2020/12/21 14:22:34;45851.00;0.15;80.01;0.00;0.00;0.62;;;;;13.70;1.00;;;;;;2289176;60;1000;-88
2020/12/21 14:25:00;65215.00;0.22;113.49;0.00;0.00;0.62;;;;;13.50;1.00;;;;;;2289142;60;2015;-89
2020/12/21 14:27:26;33990.00;0.11;59.49;0.00;0.00;0.62;;;;;13.20;1.00;;;;;;2289066;60;1322;-87
2020/12/21 14:29:56;149114.00;0.50;258.28;33050.00;0.11;57.86;;;;;13.20;1.00;;;;;;2289105;60;1036;-87
2020/12/21 14:32:23;0.00;0.00;0.62;0.00;0.00;0.62;;;;;13.00;1.00;;;;;;2288890;60;1309;-86
2020/12/21 14:34:49;0.00;0.00;0.62;0.00;0.00;0.62;;;;;13.00;1.00;;;;;;2289064;60;1129;-87
2020/12/21 14:37:16;0.00;0.00;0.62;0.00;0.00;0.62;;;;;12.90;1.00;;;;;;2288929;60;1447;-87
2020/12/21 14:39:43;1842.00;0.01;3.81;0.00;0.00;0.62;;;;;12.90;1.00;;;;;;2289005;60;936;-87
2020/12/21 14:42:09;13072.00;0.04;23.27;0.00;0.00;0.62;;;;;13.10;1.00;;;;;;2289104;60;1110;-87
2020/12/21 14:44:36;42532.00;0.14;74.27;0.00;0.00;0.62;;;;;13.20;1.00;;;;;;2288976;60;2011;-88
2020/12/21 14:47:02;125853.00;0.42;218.18;0.00;0.00;0.62;;;;;12.80;1.00;;;;;;2288971;60;1695;-87
2020/12/21 14:49:30;38180.00;0.13;66.74;0.00;0.00;0.62;;;;;12.80;1.00;;;;;;2289015;60;922;-88
2020/12/21 14:51:56;164438.00;0.55;284.69;21379.00;0.07;37.66;;;;;12.90;1.00;;;;;;2289018;60;992;-88
2020/12/21 14:54:23;133333.00;0.44;231.08;0.00;0.00;0.62;;;;;12.60;1.00;;;;;;2288947;60;1050;-88
2020/12/21 14:56:49;108401.00;0.36;188.07;0.00;0.00;0.62;;;;;12.20;1.00;;;;;;2288940;60;1413;-87
2020/12/21 14:59:16;74498.00;0.25;129.53;0.00;0.00;0.62;;;;;12.10;1.00;;;;;;2288946;60;1090;-88
2020/12/21 15:01:42;3611.00;0.01;6.88;0.00;0.00;0.62;;;;;12.10;1.00;;;;;;2280268;61;1054;-86
2020/12/21 15:04:09;48572.00;0.16;84.72;0.00;0.00;0.62;;;;;12.00;1.00;;;;;;2280391;61;1982;-88
2020/12/21 15:06:36;20586.00;0.07;36.28;0.00;0.00;0.62;;;;;12.20;1.00;;;;;;2280393;61;1496;-87
2020/12/21 15:09:03;41508.00;0.14;72.50;0.00;0.00;0.62;;;;;12.00;1.00;;;;;;2280416;61;1140;-87
2020/12/21 15:11:31;36078.00;0.12;63.10;0.00;0.00;0.62;;;;;11.90;1.00;;;;;;2280483;61;1102;-87
2020/12/21 15:13:59;0.00;0.00;0.62;0.00;0.00;0.62;;;;;12.20;1.00;;;;;;2273663;61;1037;-86
2020/12/21 15:16:25;0.00;0.00;0.62;0.00;0.00;0.62;;;;;12.30;1.00;;;;;;2273653;61;1356;-87
2020/12/21 15:18:52;158371.00;0.53;274.23;0.00;0.00;0.62;;;;;12.00;1.00;;;;;;2281461;60;1105;-87
2020/12/21 15:21:18;140258.00;0.47;243.02;0.00;0.00;0.62;;;;;11.90;1.00;;;;;;2288926;60;1578;-87
2020/12/21 15:23:45;100925.00;0.34;175.17;0.00;0.00;0.62;;;;;11.80;1.00;;;;;;2288546;60;2002;-87
2020/12/21 15:26:12;51594.00;0.17;89.94;0.00;0.00;0.62;;;;;12.20;1.00;;;;;;2288926;60;1399;-88
2020/12/21 15:28:39;31133.00;0.10;54.54;0.00;0.00;0.62;;;;;12.60;1.00;;;;;;2288910;60;1064;-88
2020/12/21 15:31:05;45118.00;0.15;78.74;0.00;0.00;0.62;;;;;12.50;1.00;;;;;;2288852;60;2049;-87
2020/12/21 15:33:32;84085.00;0.28;146.09;0.00;0.00;0.62;;;;;12.10;1.00;;;;;;2288871;60;1731;-87
2020/12/21 15:35:58;25566.00;0.09;44.91;0.00;0.00;0.62;;;;;12.00;1.00;;;;;;2288892;60;1426;-86
2020/12/21 15:38:25;18620.00;0.06;32.88;0.00;0.00;0.62;;;;;12.00;1.00;;;;;;2288908;60;1086;-86
2020/12/21 15:40:52;368760.00;1.23;636.11;52660.00;0.18;91.79;;;;;12.10;1.00;;;;;;2288930;60;1609;-86
2020/12/21 15:43:19;106577.00;0.36;184.92;0.00;0.00;0.62;;;;;11.80;1.00;;;;;;2288830;60;2008;-88
2020/12/21 15:45:46;0.00;0.00;0.62;0.00;0.00;0.62;;;;;12.10;1.00;;;;;;2288897;60;1330;-88
2020/12/21 15:48:12;69387.00;0.23;120.70;0.00;0.00;0.62;;;;;12.40;1.00;;;;;;2278401;60;965;-87
2020/12/21 15:50:40;43183.00;0.14;75.40;0.00;0.00;0.62;;;;;12.50;1.00;;;;;;2276090;61;962;-87
2020/12/21 15:53:06;28864.00;0.10;50.62;0.00;0.00;0.62;;;;;12.50;1.00;;;;;;2276289;61;1097;-89
2020/12/21 15:55:33;3485.00;0.01;6.66;0.00;0.00;0.62;;;;;12.60;1.00;;;;;;2276185;61;1319;-86
2020/12/21 15:58:00;23223.00;0.08;40.85;0.00;0.00;0.62;;;;;12.60;1.00;;;;;;2269435;61;1138;-86
2020/12/21 16:00:27;0.00;0.00;0.62;0.00;0.00;0.62;;;;;12.20;1.00;;;;;;2269430;61;962;-87